Latest Weather Observations for Cape Byron

IDN60801

Issued at 10:33 am EST Sunday 31 July 2016 (issued every 30 minutes, with the page automatically refreshed every 10 minutes)

About weather observations | Map of weather stations | Latest weather observations for NSW | Other Formats
Station Details ID: 058216 Name: CAPE BYRON AWS Lat: -28.64 Lon: 153.64 Height: 95.0 m
Data from the previous 72 hours. | See also: Recent months at Cape Byron
Date/Time
EST
Temp
°C
App
Temp
°C
Dew
Point
°C
Rel
Hum
%
Delta-T
°C
Wind Press
QNH
hPa
Press
MSL
hPa
Rain since
9am
mm
Dir  Spd
km/h
Gust
km/h
Spd
kts
Gust
kts
31/10:30am 20.5 20.7 14.8 70 3.3 N 7 11 4 6 1020.0 1019.9 0.0
31/10:00am 19.7 19.8 14.5 72 3.0 N 7 11 4 6 1020.4 1020.3 0.0
31/09:30am 19.2 19.5 14.9 76 2.5 NNW 7 9 4 5 1020.7 1020.6 0.0
31/09:00am 16.9 16.0 13.8 82 1.8 WNW 11 15 6 8 1020.6 1020.5 0.0
31/08:30am 15.8 13.6 13.3 85 1.4 W 17 20 9 11 1020.5 1020.4 0.0
31/08:00am 15.1 12.2 13.0 87 1.2 W 20 26 11 14 1020.3 1020.2 0.0
31/07:30am 15.4 12.7 12.9 85 1.4 W 19 24 10 13 1020.1 1020.0 0.0
31/07:00am 15.6 12.8 12.7 83 1.6 W 19 22 10 12 1019.6 1019.5 0.0
31/06:30am 15.6 12.7 12.9 84 1.5 WSW 20 26 11 14 1019.5 1019.4 0.0
31/06:00am 15.1 11.4 12.6 85 1.4 WSW 24 30 13 16 1019.2 1019.1 0.0
31/05:30am 14.8 11.3 12.1 84 1.5 WSW 22 28 12 15 1018.8 1018.7 0.0
31/05:00am 15.1 11.7 12.4 84 1.5 WSW 22 28 12 15 1018.4 1018.3 0.0
31/04:30am 14.6 10.8 12.3 86 1.3 WSW 24 28 13 15 1018.6 1018.5 0.0
31/04:00am 14.5 10.6 12.2 86 1.3 WSW 24 32 13 17 1018.7 1018.6 0.0
31/03:30am 14.3 10.1 12.3 88 1.1 WSW 26 32 14 17 1018.8 1018.7 0.0
31/03:00am 14.4 10.2 12.3 87 1.1 WSW 26 32 14 17 1018.9 1018.8 0.0
31/02:30am 14.6 10.4 12.3 86 1.3 WSW 26 32 14 17 1019.1 1019.0 0.0
31/02:00am 14.9 11.1 12.4 85 1.4 WSW 24 32 13 17 1019.3 1019.2 0.0
31/01:30am 15.2 11.7 12.3 83 1.6 WSW 22 26 12 14 1019.7 1019.6 0.0
31/01:00am 15.5 12.5 12.4 82 1.7 WSW 20 26 11 14 1019.9 1019.8 0.0
31/12:30am 15.5 12.5 12.6 83 1.6 WSW 20 26 11 14 1020.2 1020.1 0.0
31/12:00am 15.2 12.1 12.3 83 1.6 WSW 20 28 11 15 1020.4 1020.3 0.0
 
Date/Time
EST
Temp
°C
App
Temp
°C
Dew
Point
°C
Rel
Hum
%
Delta-T
°C
Wind Press
QNH
hPa
Press
MSL
hPa
Rain since
9am
mm
Dir  Spd
km/h
Gust
km/h
Spd
kts
Gust
kts
30/11:30pm 15.0 11.1 12.1 83 1.6 WSW 24 32 13 17 1020.6 1020.5 0.0
30/11:00pm 15.3 11.9 12.6 84 1.5 WSW 22 28 12 15 1020.7 1020.6 0.0
30/10:30pm 15.8 13.5 12.9 83 1.6 SW 17 20 9 11 1021.0 1020.9 0.0
30/10:00pm 16.0 13.7 13.1 83 1.6 SW 17 20 9 11 1020.9 1020.8 0.0
30/09:30pm 15.8 13.9 12.9 83 1.6 SW 15 19 8 10 1020.8 1020.7 0.0
30/09:00pm 15.9 13.6 13.0 83 1.6 SW 17 20 9 11 1020.7 1020.6 0.0
30/08:30pm 16.1 13.6 13.4 84 1.5 SW 19 22 10 12 1020.7 1020.6 0.0
30/08:00pm 15.7 13.0 13.4 86 1.3 SW 20 26 11 14 1020.7 1020.6 0.0
30/07:30pm 15.7 12.9 13.2 85 1.4 SW 20 26 11 14 1020.5 1020.4 0.0
30/07:00pm 16.0 13.2 13.3 84 1.5 SW 20 28 11 15 1020.3 1020.2 0.0
30/06:30pm 16.3 12.9 13.6 84 1.5 SW 24 30 13 16 1019.9 1019.8 0.0
30/06:00pm 16.4 12.7 13.9 85 1.4 SW 26 35 14 19 1019.7 1019.6 0.0
30/05:30pm 16.3 12.9 13.8 85 1.4 SW 24 35 13 19 1019.4 1019.3 0.0
30/05:00pm 16.5 13.5 13.8 84 1.5 SW 22 30 12 16 1019.2 1019.1 0.0
30/04:30pm 17.2 14.7 14.1 82 1.8 SW 20 28 11 15 1019.1 1019.0 0.0
30/04:00pm 18.0 15.6 14.5 80 2.0 SW 20 28 11 15 1019.1 1019.0 0.0
30/03:30pm 17.8 15.1 14.5 81 1.9 SSW 22 30 12 16 1019.0 1018.9 0.0
30/03:00pm 18.4 14.6 13.7 74 2.7 SSW 26 33 14 18 1019.1 1019.0 0.0
30/02:30pm 19.0 15.7 14.1 73 2.8 SSW 24 30 13 16 1019.1 1019.0 0.0
30/02:00pm 18.9 15.6 14.0 73 2.8 SSW 24 33 13 18 1019.2 1019.1 0.0
30/01:30pm 18.7 16.4 14.6 77 2.4 SSW 20 30 11 16 1019.2 1019.1 0.0
30/01:00pm 18.4 13.6 13.9 75 2.6 SSW 32 35 17 19 1019.5 1019.4 0.0
30/12:30pm 18.5 14.4 12.7 69 3.3 SSW 26 32 14 17 1019.8 1019.7 0.0
30/12:00pm 18.6 15.6 12.4 67 3.5 SSW 20 24 11 13 1020.2 1020.1 0.0
30/11:30am 18.3 14.9 10.4 60 4.2 SW 19 26 10 14 1020.7 1020.6 0.0
30/11:00am 17.6 13.7 9.5 59 4.2 SW 20 30 11 16 1021.1 1021.0 0.0
30/10:30am 17.0 13.1 8.7 58 4.3 SW 19 30 10 16 1021.3 1021.2 0.0
30/10:00am 16.0 11.6 7.5 57 4.2 WSW 20 28 11 15 1021.5 1021.4 0.0
30/09:30am 15.1 9.9 5.3 52 4.7 WSW 22 32 12 17 1021.5 1021.4 0.0
30/09:00am 14.7 9.7 4.7 51 4.7 WSW 20 30 11 16 1021.5 1021.4 0.0
30/08:30am 14.1 8.7 4.4 52 4.5 WSW 22 28 12 15 1021.2 1021.1 0.0
30/08:00am 13.8 7.5 3.9 51 4.5 WSW 26 32 14 17 1020.9 1020.8 0.0
30/07:30am 11.9 7.3 5.5 65 3.0 WSW 19 24 10 13 1020.8 1020.7 0.0
30/07:00am 11.2 7.1 6.3 72 2.3 SW 17 20 9 11 1020.7 1020.6 0.0
30/06:30am 11.9 7.7 5.5 65 3.0 SW 17 19 9 10 1020.3 1020.2 0.0
30/06:00am 13.0 8.2 5.4 60 3.6 WSW 20 26 11 14 1019.8 1019.7 0.0
30/05:30am 13.8 10.2 4.9 55 4.2 WSW 13 15 7 8 1019.6 1019.5 0.0
30/05:00am 14.4 11.4 6.0 57 4.0 SSW 11 15 6 8 1019.5 1019.4 0.0
30/04:30am 15.1 12.7 6.9 58 4.0 S 9 11 5 6 1019.3 1019.2 0.0
30/04:00am 15.0 14.9 9.4 69 2.9 CALM 0 0 0 0 1019.2 1019.1 0.0
30/03:30am 15.9 14.2 8.2 60 3.9 NNW 7 9 4 5 1019.3 1019.2 0.0
30/03:00am 14.9 12.5 8.6 66 3.2 NNW 11 13 6 7 1019.5 1019.4 0.0
30/02:30am 14.1 11.4 8.9 71 2.6 NNW 13 15 7 8 1019.6 1019.5 0.0
30/02:00am 13.1 10.5 7.8 70 2.6 NW 11 15 6 8 1019.7 1019.6 0.0
30/01:30am 13.7 11.8 9.0 73 2.4 NNW 9 13 5 7 1019.8 1019.7 0.0
30/01:00am 13.4 11.5 9.1 75 2.2 NW 9 11 5 6 1020.0 1019.9 0.0
30/12:30am 15.2 14.1 11.8 80 1.8 NNW 9 17 5 9 1020.0 1019.9 0.0
30/12:00am 15.1 12.9 10.7 75 2.3 NNW 13 17 7 9 1020.2 1020.1 0.0
 
Date/Time
EST
Temp
°C
App
Temp
°C
Dew
Point
°C
Rel
Hum
%
Delta-T
°C
Wind Press
QNH
hPa
Press
MSL
hPa
Rain since
9am
mm
Dir  Spd
km/h
Gust
km/h
Spd
kts
Gust
kts
29/11:30pm 14.7 13.4 11.1 79 1.9 NNW 9 17 5 9 1020.4 1020.3 0.0
29/11:00pm 15.6 14.3 12.4 81 1.8 NNW 11 17 6 9 1020.5 1020.4 0.0
29/10:30pm 15.6 14.3 11.2 75 2.4 NNW 9 15 5 8 1020.5 1020.4 0.0
29/10:00pm 15.6 13.6 10.2 70 2.8 NNW 11 17 6 9 1020.5 1020.4 0.0
29/09:30pm 16.1 14.2 10.6 70 2.9 NNW 11 19 6 10 1020.6 1020.5 0.0
29/09:00pm 16.0 14.1 10.5 70 2.9 NNW 11 22 6 12 1020.6 1020.5 0.0
29/08:30pm 16.6 15.5 12.0 74 2.5 NNW 9 13 5 7 1020.4 1020.3 0.0
29/08:00pm 17.1 16.1 12.2 73 2.7 NNW 9 15 5 8 1020.3 1020.2 0.0
29/07:30pm 17.7 16.5 12.8 73 2.7 NNW 11 17 6 9 1020.0 1019.9 0.0
29/07:00pm 18.7 14.9 11.3 62 4.0 N 22 30 12 16 1019.8 1019.7 0.0
29/06:30pm 18.8 14.1 10.6 59 4.4 N 26 33 14 18 1019.7 1019.6 0.0
29/06:00pm 19.0 14.1 9.8 55 4.9 N 26 37 14 20 1019.4 1019.3 0.0
29/05:30pm 19.0 14.4 9.5 54 5.0 N 24 33 13 18 1019.2 1019.1 0.0
29/05:00pm 19.3 15.2 8.6 50 5.6 NNE 20 32 11 17 1019.3 1019.2 0.0
29/04:30pm 19.7 15.8 8.7 49 5.8 NNE 19 30 10 16 1019.3 1019.2 0.0
29/04:00pm 20.2 16.0 8.2 46 6.2 NNE 20 30 11 16 1019.4 1019.3 0.0
29/03:30pm 20.5 16.1 7.2 42 6.8 NNE 20 28 11 15 1019.6 1019.5 0.0
29/03:00pm 20.9 17.7 8.5 45 6.5 NNE 15 22 8 12 1019.7 1019.6 0.0
29/02:30pm 20.7 16.2 8.7 46 6.3 NE 22 26 12 14 1019.8 1019.7 0.0
29/02:00pm 20.9 16.8 7.9 43 6.8 NE 19 22 10 12 1020.0 1019.9 0.0
29/01:30pm 21.6 18.6 9.2 45 6.6 ENE 15 17 8 9 1020.3 1020.2 0.0
29/01:00pm 21.5 19.0 9.7 47 6.4 NE 13 15 7 8 1020.8 1020.7 0.0
29/12:30pm 21.5 19.3 9.4 46 6.5 NE 11 13 6 7 1021.4 1021.3 0.0
29/12:00pm 21.3 19.4 8.9 45 6.6 NE 9 13 5 7 1022.1 1022.0 0.0
29/11:30am 20.6 19.5 10.7 53 5.4 ENE 7 11 4 6 1022.6 1022.5 0.0
29/11:00am 20.5 18.9 6.5 40 7.1 NNE 4 7 2 4 1023.0 1022.9 0.0
29/10:30am 19.9 19.7 10.6 55 5.1 ENE 2 6 1 3 1023.2 1023.1 0.0
29/10:00am 19.3 19.6 10.8 58 4.6 CALM 0 2 0 1 1023.6 1023.5 0.0
29/09:30am 19.0 17.1 6.8 45 6.1 NNW 6 9 3 5 1023.8 1023.7 0.0
29/09:00am 18.1 16.4 7.5 50 5.4 NNW 6 7 3 4 1023.8 1023.7 0.0
29/08:30am 15.4 12.7 7.4 59 4.0 W 11 13 6 7 1023.6 1023.5 0.0
29/08:00am 14.2 11.1 7.3 63 3.4 NW 13 15 7 8 1023.3 1023.2 0.0
29/07:30am 13.7 10.7 7.5 66 3.1 NW 13 15 7 8 1023.2 1023.1 0.0
29/07:00am 13.5 10.4 7.3 66 3.0 NW 13 15 7 8 1023.1 1023.0 0.0
29/06:30am 13.8 11.5 7.6 66 3.1 NW 9 11 5 6 1022.9 1022.8 0.0
29/06:00am 14.2 12.0 7.7 65 3.2 NW 9 11 5 6 1022.5 1022.4 0.0
29/05:30am 14.0 11.8 8.0 67 3.0 WNW 9 11 5 6 1022.3 1022.2 0.0
29/05:00am 14.3 11.8 8.3 67 3.0 WNW 11 11 6 6 1022.2 1022.1 0.0
29/04:30am 14.1 11.2 8.1 67 3.0 WNW 13 15 7 8 1022.0 1021.9 0.0
29/04:00am 14.2 11.4 8.4 68 2.9 WNW 13 15 7 8 1021.9 1021.8 0.0
29/03:30am 14.3 11.1 8.5 68 2.9 WNW 15 17 8 9 1022.0 1021.9 0.0
29/03:00am 14.4 11.6 8.4 67 3.0 WNW 13 15 7 8 1022.2 1022.1 0.0
29/02:30am 14.4 11.9 8.1 66 3.2 WNW 11 15 6 8 1022.3 1022.2 0.0
29/02:00am 14.5 12.0 8.0 65 3.2 WNW 11 15 6 8 1022.3 1022.2 0.0
29/01:30am 14.5 11.1 7.8 64 3.3 WNW 15 17 8 9 1022.5 1022.4 0.0
29/01:00am 14.7 11.7 7.7 63 3.5 WNW 13 15 7 8 1022.5 1022.4 0.0
29/12:30am 14.8 11.8 7.8 63 3.5 WNW 13 15 7 8 1022.6 1022.5 0.0
29/12:00am 14.6 11.7 8.3 66 3.2 WNW 13 15 7 8 1022.8 1022.7 0.0
 
Date/Time
EST
Temp
°C
App
Temp
°C
Dew
Point
°C
Rel
Hum
%
Delta-T
°C
Wind Press
QNH
hPa
Press
MSL
hPa
Rain since
9am
mm
Dir  Spd
km/h
Gust
km/h
Spd
kts
Gust
kts
28/11:30pm 14.1 11.3 8.7 70 2.7 WNW 13 17 7 9 1022.9 1022.8 0.0
28/11:00pm 13.6 10.9 10.2 80 1.8 WNW 15 19 8 10 1022.9 1022.8 0.0
28/10:30pm 13.8 11.2 10.6 81 1.7 WNW 15 17 8 9 1023.2 1023.1 0.0
28/10:00pm 13.9 11.2 10.5 80 1.8 WNW 15 17 8 9 1023.3 1023.2 0.0
28/09:30pm 13.8 10.9 9.6 76 2.2 WNW 15 17 8 9 1023.4 1023.3 0.0
28/09:00pm 14.3 11.9 9.9 75 2.3 NW 13 15 7 8 1023.5 1023.4 0.0
28/08:30pm 14.2 11.3 9.8 75 2.3 WNW 15 17 8 9 1023.4 1023.3 0.0
28/08:00pm 14.8 12.7 9.8 72 2.6 NW 11 15 6 8 1023.4 1023.3 0.0
28/07:30pm 15.4 13.6 9.3 67 3.2 N 9 11 5 6 1023.4 1023.3 0.0
28/07:00pm 16.5 14.9 8.7 60 4.0 ENE 7 9 4 5 1023.2 1023.1 0.0
28/06:30pm 16.5 14.6 9.2 62 3.8 E 9 13 5 7 1023.1 1023.0 0.0
28/06:00pm 16.7 14.4 8.9 60 4.0 ESE 11 13 6 7 1023.0 1022.9 0.0
28/05:30pm 16.9 14.3 9.3 61 4.0 ESE 13 17 7 9 1022.9 1022.8 0.0
28/05:00pm 17.1 14.0 10.2 64 3.7 ESE 17 20 9 11 1022.7 1022.6 0.0
28/04:30pm 17.1 13.8 9.5 61 4.0 ESE 17 22 9 12 1022.6 1022.5 0.0
28/04:00pm 17.5 14.3 10.1 62 3.9 SE 17 22 9 12 1022.5 1022.4 0.0
28/03:30pm 17.6 14.0 9.8 60 4.1 SSE 19 24 10 13 1022.7 1022.6 0.0
28/03:00pm 17.5 13.8 9.4 59 4.2 SSE 19 24 10 13 1022.6 1022.5 0.0
28/02:30pm 17.6 13.5 10.0 61 4.0 S 22 26 12 14 1022.7 1022.6 0.0
28/02:00pm 17.6 13.3 9.5 59 4.2 S 22 28 12 15 1022.7 1022.6 0.0
28/01:30pm 17.6 12.8 8.7 56 4.6 S 24 30 13 16 1022.8 1022.7 0.0
28/01:00pm 17.6 12.4 8.7 56 4.6 S 26 30 14 16 1023.1 1023.0 0.0
28/12:30pm 17.5 12.7 7.3 51 5.1 S 22 26 12 14 1023.3 1023.2 0.0
28/12:00pm 17.9 13.3 6.4 47 5.7 SSW 20 28 11 15 1023.7 1023.6 0.0
28/11:30am 17.4 12.8 6.3 48 5.5 SSW 20 30 11 16 1024.0 1023.9 0.0
28/11:00am 16.7 11.1 5.6 48 5.3 SW 24 35 13 19 1024.3 1024.2 0.0

Other Formats:

Comma delimited format used in spreadsheet applications
http://www.bom.gov.au/fwo/IDN60801/IDN60801.94599.axf

JavaScript Object Notation format (JSON) in row-major order
http://www.bom.gov.au/fwo/IDN60801/IDN60801.94599.json